SBI5019 UNNT-USSS
Flight info
| Callsign | SBI5019 |
|---|---|
| Flight time | N/A |
| Altitude | 36000 |
| Route | OGAMA A308 ML A300 RUBOR T448 SOPUS P135 BEGMA |
| Aircraft | A320/M-SDE2E3FGHIRWXY/LB1 |
Departure
| Time | 2026-05-05 06:02 |
|---|---|
| Airport | Novosibirsk Tolmachevo Airport (UNNT) |
Arrival
| Time | N/A |
|---|---|
| Airport | Koltsovo Airport (USSS) |
| Time | Latitude | Longitude | Altitude | Speed | Heading |
|---|---|---|---|---|---|
| 2026-05-05 05:36 | 55.00962 | 82.66544 | 373 ft | 0 kts | 170° |
| 2026-05-05 05:41 | 55.00963 | 82.66544 | 373 ft | 0 kts | 170° |
| 2026-05-05 05:52 | 55.00979 | 82.66539 | 373 ft | 4 kts | 167° |
| 2026-05-05 05:53 | 55.01000 | 82.66532 | 373 ft | 4 kts | 168° |
| 2026-05-05 05:53 | 55.01025 | 82.66525 | 373 ft | 4 kts | 175° |
| 2026-05-05 05:53 | 55.01049 | 82.66520 | 373 ft | 4 kts | 128° |
| 2026-05-05 05:53 | 55.01049 | 82.66504 | 373 ft | 4 kts | 83° |
| 2026-05-05 05:54 | 55.01055 | 82.66476 | 373 ft | 4 kts | 175° |
| 2026-05-05 05:54 | 55.01082 | 82.66476 | 373 ft | 4 kts | 177° |
| 2026-05-05 05:54 | 55.01107 | 82.66470 | 373 ft | 3 kts | 170° |
| 2026-05-05 05:54 | 55.01110 | 82.66469 | 373 ft | 0 kts | 170° |
| 2026-05-05 05:56 | 55.01107 | 82.66470 | 373 ft | 0 kts | 170° |
| 2026-05-05 05:57 | 55.01065 | 82.66486 | 373 ft | 13 kts | 160° |
| 2026-05-05 05:57 | 55.01074 | 82.66609 | 373 ft | 11 kts | 66° |
| 2026-05-05 05:57 | 55.01094 | 82.66710 | 373 ft | 8 kts | 79° |
| 2026-05-05 05:57 | 55.01099 | 82.66820 | 373 ft | 11 kts | 92° |
| 2026-05-05 05:58 | 55.01078 | 82.66934 | 373 ft | 9 kts | 92° |
| 2026-05-05 05:58 | 55.01087 | 82.67036 | 373 ft | 8 kts | 82° |
| 2026-05-05 05:58 | 55.01100 | 82.67186 | 373 ft | 14 kts | 81° |
| 2026-05-05 05:58 | 55.01107 | 82.67330 | 373 ft | 11 kts | 88° |
| 2026-05-05 05:59 | 55.01120 | 82.67446 | 373 ft | 9 kts | 57° |
| 2026-05-05 05:59 | 55.01166 | 82.67508 | 373 ft | 11 kts | 29° |
| 2026-05-05 05:59 | 55.01252 | 82.67597 | 373 ft | 14 kts | 31° |
| 2026-05-05 06:00 | 55.01487 | 82.67748 | 371 ft | 7 kts | 278° |
| 2026-05-05 06:00 | 55.01484 | 82.67709 | 372 ft | 0 kts | 261° |
| 2026-05-05 06:01 | 55.01463 | 82.67474 | 370 ft | 55 kts | 261° |
| 2026-05-05 06:01 | 55.01367 | 82.66437 | 375 ft | 117 kts | 261° |
| 2026-05-05 06:01 | 55.01210 | 82.64733 | 392 ft | 164 kts | 259° |
| 2026-05-05 06:02 | 55.01018 | 82.62765 | 955 ft | 171 kts | 258° |
| 2026-05-05 06:02 | 55.00815 | 82.60656 | 1753 ft | 174 kts | 257° |
| 2026-05-05 06:02 | 55.00635 | 82.58575 | 2493 ft | 178 kts | 259° |
| 2026-05-05 06:02 | 55.00436 | 82.56288 | 2847 ft | 202 kts | 258° |
| 2026-05-05 06:03 | 55.00239 | 82.53889 | 3706 ft | 204 kts | 263° |
| 2026-05-05 06:03 | 55.00597 | 82.51390 | 4088 ft | 237 kts | 299° |
| 2026-05-05 06:03 | 55.01755 | 82.49077 | 4657 ft | 259 kts | 311° |
| 2026-05-05 06:03 | 55.03102 | 82.46994 | 5542 ft | 264 kts | 314° |
| 2026-05-05 06:04 | 55.04510 | 82.44953 | 6531 ft | 263 kts | 315° |